createdAt,value
2023-10-02T00:01:22.241Z,56.71
2023-10-02T00:03:49.966Z,56.89
2023-10-02T00:06:18.430Z,56.73
2023-10-02T00:08:53.406Z,56.32
2023-10-02T00:11:37.601Z,57.14
2023-10-02T00:14:29.059Z,57.32
2023-10-02T00:17:01.701Z,57.53
2023-10-02T00:19:39.561Z,57.12
2023-10-02T00:22:39.635Z,57.40
2023-10-02T00:25:11.675Z,58.27
2023-10-02T00:27:39.709Z,58.57
2023-10-02T00:30:15.311Z,58.77
2023-10-02T00:32:47.136Z,59.23
2023-10-02T00:35:15.925Z,59.39
2023-10-02T00:37:55.972Z,59.33
2023-10-02T00:40:30.439Z,58.62
2023-10-02T00:43:22.809Z,58.50
2023-10-02T00:45:51.673Z,57.82
2023-10-02T00:48:27.351Z,57.63
2023-10-02T00:50:56.421Z,57.76
2023-10-02T00:53:41.197Z,58.44
2023-10-02T00:56:22.686Z,58.97
2023-10-02T00:59:02.294Z,59.42
2023-10-02T01:01:36.339Z,58.63
2023-10-02T01:04:12.791Z,59.13
2023-10-02T01:07:18.463Z,58.49
2023-10-02T01:10:08.005Z,58.30
2023-10-02T01:12:45.187Z,58.97
2023-10-02T01:15:13.818Z,58.73
2023-10-02T01:17:42.259Z,59.29
2023-10-02T01:20:22.131Z,59.45
2023-10-02T01:22:57.460Z,59.28
2023-10-02T01:25:25.869Z,59.59
2023-10-02T01:27:56.949Z,60.13
2023-10-02T01:30:25.833Z,59.78
2023-10-02T01:33:29.641Z,59.55
2023-10-02T01:36:00.853Z,59.84
2023-10-02T01:38:29.165Z,59.31
2023-10-02T01:41:04.270Z,59.90
2023-10-02T01:43:34.670Z,59.26
2023-10-02T01:46:03.097Z,60.02
2023-10-02T01:48:43.164Z,59.30
2023-10-02T01:51:22.310Z,59.92
2023-10-02T01:53:52.593Z,59.26
2023-10-02T01:56:21.511Z,59.30
2023-10-02T01:58:53.254Z,60.09
2023-10-02T02:01:22.278Z,59.52
2023-10-02T02:03:51.854Z,59.97
2023-10-02T02:06:24.368Z,59.52
2023-10-02T02:08:54.794Z,60.06
2023-10-02T02:11:24.569Z,59.83
2023-10-02T02:13:53.386Z,60.25
2023-10-02T02:16:32.619Z,60.58
2023-10-02T02:19:06.825Z,61.01
2023-10-02T02:21:35.252Z,60.56
2023-10-02T02:24:08.866Z,60.61
2023-10-02T02:26:41.168Z,60.63
2023-10-02T02:29:28.174Z,61.26
2023-10-02T02:31:56.881Z,60.58
2023-10-02T02:34:25.295Z,61.09
2023-10-02T02:36:55.843Z,61.89
2023-10-02T02:39:24.321Z,61.85
2023-10-02T02:42:12.869Z,61.56
2023-10-02T02:44:44.837Z,61.07
2023-10-02T02:47:14.569Z,61.75
2023-10-02T02:50:01.766Z,61.79
2023-10-02T02:52:34.085Z,61.99
2023-10-02T02:55:07.169Z,62.40
2023-10-02T02:57:39.700Z,62.02
2023-10-02T03:00:27.997Z,62.18
2023-10-02T03:02:57.768Z,62.18
2023-10-02T03:05:39.683Z,62.77
2023-10-02T03:08:09.953Z,62.25
2023-10-02T03:10:42.191Z,62.41
2023-10-02T03:13:17.178Z,61.83
2023-10-02T03:15:50.199Z,61.98
2023-10-02T03:18:47.503Z,62.23
2023-10-02T03:21:23.422Z,61.95
2023-10-02T03:23:52.484Z,61.96
2023-10-02T03:26:38.892Z,62.20
2023-10-02T03:29:13.571Z,62.41
2023-10-02T03:31:51.972Z,62.74
2023-10-02T03:34:30.801Z,62.99
2023-10-02T03:37:23.250Z,63.33
2023-10-02T03:40:14.383Z,63.42
2023-10-02T03:42:42.161Z,63.04
2023-10-02T03:45:10.388Z,62.95
2023-10-02T03:47:39.278Z,63.07
2023-10-02T03:50:18.238Z,63.27
2023-10-02T03:53:05.203Z,63.28
2023-10-02T03:55:35.092Z,64.06
2023-10-02T03:58:03.916Z,64.29
2023-10-02T04:00:44.737Z,64.15
2023-10-02T04:03:12.955Z,65.31
2023-10-02T04:05:47.437Z,66.64
2023-10-02T04:08:26.816Z,66.16
2023-10-02T04:10:59.126Z,64.88
2023-10-02T04:13:33.661Z,65.42
2023-10-02T04:16:22.260Z,65.24
2023-10-02T04:19:10.260Z,66.19
2023-10-02T04:21:38.567Z,67.54
2023-10-02T04:24:11.141Z,66.14
2023-10-02T04:26:43.470Z,66.44
2023-10-02T04:29:26.618Z,66.67
2023-10-02T04:32:15.739Z,66.22
2023-10-02T04:34:57.767Z,66.33
2023-10-02T04:37:25.910Z,66.38
2023-10-02T04:39:57.336Z,66.61
2023-10-02T04:42:48.338Z,66.58
2023-10-02T04:45:22.699Z,66.91
2023-10-02T04:47:50.897Z,67.00
2023-10-02T04:50:24.316Z,66.67
2023-10-02T04:52:57.193Z,66.80
2023-10-02T04:55:29.758Z,66.54
2023-10-02T04:58:16.124Z,68.15
2023-10-02T05:01:02.978Z,69.38
2023-10-02T05:03:38.576Z,69.64
2023-10-02T05:06:07.996Z,69.65
2023-10-02T05:08:42.426Z,69.46
2023-10-02T05:11:25.424Z,68.48
2023-10-02T05:13:57.367Z,68.98
2023-10-02T05:16:31.497Z,68.07
2023-10-02T05:19:00.109Z,68.84
2023-10-02T05:21:37.634Z,69.26
2023-10-02T05:24:14.690Z,69.34
2023-10-02T05:26:45.933Z,69.51
2023-10-02T05:29:38.204Z,68.91
2023-10-02T05:32:21.347Z,69.72
2023-10-02T05:35:22.544Z,68.81
2023-10-02T05:37:53.342Z,68.94
2023-10-02T05:40:22.750Z,68.31
2023-10-02T05:43:02.883Z,69.47
2023-10-02T05:45:47.189Z,68.95
2023-10-02T05:48:16.763Z,69.52
2023-10-02T05:50:48.863Z,69.72
2023-10-02T05:53:17.155Z,69.65
2023-10-02T05:56:07.616Z,69.21
2023-10-02T05:58:37.662Z,68.80
2023-10-02T06:01:08.293Z,68.42
2023-10-02T06:03:37.339Z,67.71
2023-10-02T06:06:17.119Z,69.06
2023-10-02T06:09:02.965Z,68.67
2023-10-02T06:11:35.055Z,68.41
2023-10-02T06:14:13.970Z,67.41
2023-10-02T06:16:43.147Z,68.35
2023-10-02T06:19:14.809Z,70.44
2023-10-02T06:22:04.279Z,68.78
2023-10-02T06:24:32.417Z,67.37
2023-10-02T06:27:06.109Z,67.64
2023-10-02T06:29:37.013Z,65.62
2023-10-02T06:32:11.523Z,66.98
2023-10-02T06:34:41.212Z,67.24
2023-10-02T06:37:13.946Z,66.04
2023-10-02T06:39:47.323Z,65.72
2023-10-02T06:42:18.810Z,65.43
2023-10-02T06:44:55.613Z,64.46
2023-10-02T06:47:25.009Z,65.15
2023-10-02T06:49:53.532Z,64.04
2023-10-02T06:52:22.056Z,64.35
2023-10-02T06:54:50.722Z,64.64
2023-10-02T06:57:19.654Z,63.22
2023-10-02T06:59:54.945Z,62.68
2023-10-02T07:02:23.332Z,61.96
2023-10-02T07:04:55.148Z,61.21
2023-10-02T07:07:31.384Z,61.68
2023-10-02T07:10:09.284Z,61.43
2023-10-02T07:12:41.889Z,60.77
2023-10-02T07:15:14.848Z,60.90
2023-10-02T07:18:02.166Z,59.99
2023-10-02T07:20:44.241Z,62.64
2023-10-02T07:23:16.830Z,61.94
2023-10-02T07:25:51.859Z,61.42
2023-10-02T07:28:22.636Z,61.43
2023-10-02T07:30:53.693Z,59.65
2023-10-02T07:33:21.914Z,57.93
2023-10-02T07:35:56.121Z,57.99
2023-10-02T07:38:31.844Z,58.39
2023-10-02T07:41:08.219Z,59.90
2023-10-02T07:43:36.506Z,60.71
2023-10-02T07:46:15.874Z,60.35
2023-10-02T07:48:57.366Z,58.84
2023-10-02T07:51:32.302Z,57.13
2023-10-02T07:54:01.360Z,58.18
2023-10-02T07:56:30.513Z,57.80
2023-10-02T07:59:03.152Z,56.19
2023-10-02T08:01:35.025Z,57.02
2023-10-02T08:04:04.073Z,56.58
2023-10-02T08:06:35.121Z,54.74
2023-10-02T08:09:23.462Z,53.99
2023-10-02T08:11:52.699Z,52.99
2023-10-02T08:14:44.118Z,53.54
2023-10-02T08:17:31.502Z,52.75
2023-10-02T08:20:00.928Z,51.19
2023-10-02T08:22:38.143Z,50.54
2023-10-02T08:25:15.122Z,52.78
2023-10-02T08:28:00.146Z,52.96
2023-10-02T08:30:37.950Z,52.43
2023-10-02T08:33:23.008Z,53.41
2023-10-02T08:36:11.420Z,52.40
2023-10-02T08:38:42.116Z,51.71
2023-10-02T08:41:10.253Z,52.14
2023-10-02T08:43:47.200Z,53.21
2023-10-02T08:46:23.870Z,52.14
2023-10-02T08:48:59.280Z,52.58
2023-10-02T08:51:37.653Z,51.47
2023-10-02T08:54:07.082Z,49.24
2023-10-02T08:56:45.233Z,48.19
2023-10-02T08:59:20.247Z,47.15
2023-10-02T09:01:49.694Z,47.73
2023-10-02T09:04:28.101Z,48.61
2023-10-02T09:07:00.483Z,48.61
2023-10-02T09:09:29.300Z,48.60
2023-10-02T09:12:00.463Z,48.05
2023-10-02T09:14:31.796Z,46.79
2023-10-02T09:17:19.787Z,45.95
2023-10-02T09:19:54.933Z,46.72
2023-10-02T09:22:24.630Z,46.18
2023-10-02T09:25:28.145Z,45.58
2023-10-02T09:28:02.243Z,43.95
2023-10-02T09:30:38.765Z,43.18
2023-10-02T09:33:25.956Z,42.86
2023-10-02T09:36:49.258Z,43.24
2023-10-02T09:38:57.592Z,44.03
2023-10-02T09:41:26.166Z,45.11
2023-10-02T09:43:55.450Z,44.50
2023-10-02T09:46:27.611Z,42.82
2023-10-02T09:49:22.995Z,44.75
2023-10-02T09:52:13.492Z,45.81
2023-10-02T09:55:04.992Z,45.17
2023-10-02T09:57:37.383Z,44.13
2023-10-02T10:00:31.361Z,43.95
2023-10-02T10:03:23.826Z,45.36
2023-10-02T10:06:07.110Z,45.08
2023-10-02T10:09:13.258Z,43.13
2023-10-02T10:11:42.190Z,41.28
2023-10-02T10:14:37.291Z,40.68
2023-10-02T10:17:14.470Z,40.80
2023-10-02T10:20:31.434Z,40.94
2023-10-02T10:23:19.478Z,40.37
2023-10-02T10:25:52.364Z,41.83
2023-10-02T10:28:27.507Z,42.51
2023-10-02T10:31:03.199Z,40.79
2023-10-02T10:33:35.439Z,42.04
2023-10-02T10:36:10.641Z,41.42
2023-10-02T10:38:40.748Z,42.45
2023-10-02T10:41:16.230Z,43.17
2023-10-02T10:43:47.184Z,43.12
2023-10-02T10:46:17.859Z,44.01
2023-10-02T10:48:54.494Z,41.58
2023-10-02T10:51:22.423Z,42.49
2023-10-02T10:54:02.018Z,42.80
2023-10-02T10:56:30.134Z,42.06
2023-10-02T10:59:10.483Z,41.75
2023-10-02T11:02:11.473Z,41.46
2023-10-02T11:04:52.130Z,40.89
2023-10-02T11:07:26.939Z,39.79
2023-10-02T11:10:20.883Z,42.01
2023-10-02T11:12:57.602Z,41.17
2023-10-02T11:15:49.871Z,40.38
2023-10-02T11:18:21.883Z,40.38
2023-10-02T11:20:51.200Z,39.68
2023-10-02T11:23:24.686Z,42.11
2023-10-02T11:25:54.822Z,42.37
2023-10-02T11:28:34.070Z,42.03
2023-10-02T11:31:31.157Z,41.55
2023-10-02T11:34:30.157Z,40.86
2023-10-02T11:36:57.796Z,40.30
2023-10-02T11:39:29.167Z,38.43
2023-10-02T11:41:57.830Z,37.54
2023-10-02T11:44:27.688Z,38.53
2023-10-02T11:46:56.506Z,38.63
2023-10-02T11:49:24.263Z,37.65
2023-10-02T11:51:52.291Z,36.78
2023-10-02T11:54:20.095Z,36.82
2023-10-02T11:56:48.584Z,37.19
2023-10-02T11:59:16.551Z,37.11
2023-10-02T12:01:46.848Z,37.01
2023-10-02T12:04:15.037Z,38.06
2023-10-02T12:06:43.776Z,36.84
2023-10-02T12:09:19.560Z,36.04
2023-10-02T12:11:47.876Z,34.81
2023-10-02T12:14:15.620Z,34.73
2023-10-02T12:16:43.737Z,34.57
2023-10-02T12:19:12.039Z,33.02
2023-10-02T12:21:44.341Z,32.59
2023-10-02T12:24:15.347Z,33.74
2023-10-02T12:26:45.163Z,33.03
2023-10-02T12:29:12.960Z,34.04
2023-10-02T12:31:42.011Z,32.82
2023-10-02T12:34:09.837Z,32.90
2023-10-02T12:36:37.991Z,33.01
2023-10-02T12:39:10.980Z,32.87
2023-10-02T12:41:38.986Z,34.89
2023-10-02T12:44:09.317Z,35.05
2023-10-02T12:46:45.006Z,33.53
2023-10-02T12:49:15.929Z,33.88
2023-10-02T12:51:45.130Z,32.39
2023-10-02T12:54:13.270Z,31.24
2023-10-02T12:56:41.387Z,32.67
2023-10-02T12:59:11.214Z,31.68
2023-10-02T13:01:40.326Z,32.84
2023-10-02T13:04:08.327Z,32.31
2023-10-02T13:06:36.576Z,31.77
2023-10-02T13:09:16.121Z,31.11
2023-10-02T13:11:48.925Z,33.89
2023-10-02T13:14:20.310Z,33.74
2023-10-02T13:16:50.433Z,34.85
2023-10-02T13:19:18.338Z,35.75
2023-10-02T13:21:53.223Z,34.51
2023-10-02T13:24:24.978Z,33.62
2023-10-02T13:26:54.952Z,32.85
2023-10-02T13:29:24.102Z,31.26
2023-10-02T13:31:53.367Z,32.28
2023-10-02T13:34:22.585Z,32.02
2023-10-02T13:36:50.941Z,31.61
2023-10-02T13:39:19.754Z,32.52
2023-10-02T13:41:48.675Z,32.70
2023-10-02T13:44:19.400Z,32.81
2023-10-02T13:46:50.222Z,32.17
2023-10-02T13:49:20.834Z,31.89
2023-10-02T13:51:49.227Z,33.31
2023-10-02T13:54:16.893Z,32.43
2023-10-02T13:56:45.332Z,33.38
2023-10-02T13:59:13.035Z,32.58
2023-10-02T14:01:41.464Z,32.02
2023-10-02T14:04:11.740Z,31.23
2023-10-02T14:06:39.921Z,29.83
2023-10-02T14:09:11.998Z,30.11
2023-10-02T14:11:41.855Z,29.75
2023-10-02T14:14:09.891Z,29.12
2023-10-02T14:16:38.041Z,29.46
2023-10-02T14:19:08.129Z,29.13
2023-10-02T14:21:36.552Z,30.61
2023-10-02T14:24:06.418Z,29.31
2023-10-02T14:26:34.528Z,28.63
2023-10-02T14:29:02.549Z,27.58
2023-10-02T14:31:33.949Z,26.87
2023-10-02T14:34:02.451Z,25.90
2023-10-02T14:36:31.289Z,24.93
2023-10-02T14:39:00.261Z,25.13
2023-10-02T14:41:28.949Z,24.49
2023-10-02T14:43:58.459Z,25.92
2023-10-02T14:46:26.936Z,25.06
2023-10-02T14:48:55.024Z,24.56
2023-10-02T14:51:23.974Z,23.88
2023-10-02T14:53:52.057Z,22.93
2023-10-02T14:56:22.824Z,22.81
2023-10-02T14:58:52.146Z,24.77
2023-10-02T15:01:21.189Z,23.72
2023-10-02T15:03:50.458Z,23.64
2023-10-02T15:06:18.424Z,23.83
2023-10-02T15:08:46.568Z,23.65
2023-10-02T15:11:17.781Z,25.96
2023-10-02T15:13:48.630Z,29.68
2023-10-02T15:16:17.364Z,30.32
2023-10-02T15:18:48.560Z,30.19
2023-10-02T15:21:20.601Z,30.35
2023-10-02T15:23:50.020Z,30.44
2023-10-02T15:26:19.758Z,31.76
2023-10-02T15:28:49.954Z,31.77
2023-10-02T15:31:19.654Z,31.37
2023-10-02T15:33:47.766Z,31.91
2023-10-02T15:36:17.132Z,31.81
2023-10-02T15:38:47.033Z,31.45
2023-10-02T15:41:27.210Z,31.26
2023-10-02T15:43:55.332Z,30.89
2023-10-02T15:46:23.261Z,31.77
2023-10-02T15:48:51.257Z,32.66
2023-10-02T15:51:18.976Z,32.45
2023-10-02T15:53:47.032Z,32.24
2023-10-02T15:56:16.918Z,32.27
2023-10-02T15:58:46.577Z,33.22
2023-10-02T16:01:18.584Z,32.78
2023-10-02T16:03:48.206Z,32.79
2023-10-02T16:06:24.682Z,32.55
2023-10-02T16:08:55.334Z,32.84
2023-10-02T16:11:23.643Z,33.36
2023-10-02T16:13:54.335Z,33.44
2023-10-02T16:16:25.858Z,34.24
2023-10-02T16:18:53.899Z,35.58
2023-10-02T16:21:25.299Z,36.03
2023-10-02T16:23:53.331Z,35.38
2023-10-02T16:26:23.502Z,36.27
2023-10-02T16:28:53.034Z,36.08
2023-10-02T16:31:26.860Z,36.91
2023-10-02T16:33:55.714Z,37.07
2023-10-02T16:36:27.478Z,37.17
2023-10-02T16:41:29.910Z,37.64
2023-10-02T16:43:57.927Z,37.40
2023-10-02T16:46:25.845Z,37.70
2023-10-02T16:48:54.428Z,38.07
2023-10-02T16:51:22.578Z,38.67
2023-10-02T16:53:50.687Z,38.64
2023-10-02T16:56:20.430Z,38.74
2023-10-02T16:58:48.955Z,39.37
2023-10-02T17:01:19.859Z,39.60
2023-10-02T17:03:48.302Z,39.78
2023-10-02T17:06:16.036Z,40.53
2023-10-02T17:08:44.077Z,40.03
2023-10-02T17:11:12.821Z,40.71
2023-10-02T17:13:44.343Z,42.03
2023-10-02T17:16:12.461Z,41.00
2023-10-02T17:18:40.657Z,41.66
2023-10-02T17:21:10.377Z,40.63
2023-10-02T17:23:38.451Z,41.22
2023-10-02T17:26:09.777Z,41.85
2023-10-02T17:28:39.772Z,42.49
2023-10-02T17:31:09.991Z,42.50
2023-10-02T17:33:39.773Z,42.16
2023-10-02T17:36:07.772Z,42.60
2023-10-02T17:38:35.923Z,42.27
2023-10-02T17:41:03.647Z,42.71
2023-10-02T17:43:32.148Z,42.65
2023-10-02T17:46:00.469Z,44.19
2023-10-02T17:48:28.853Z,44.39
2023-10-02T17:50:56.510Z,44.52
2023-10-02T17:53:24.561Z,43.82
2023-10-02T17:55:52.307Z,44.08
2023-10-02T17:58:20.887Z,44.05
2023-10-02T18:00:48.918Z,44.17
2023-10-02T18:03:17.774Z,44.37
2023-10-02T18:05:46.992Z,44.84
2023-10-02T18:08:15.448Z,44.69
2023-10-02T18:10:46.310Z,44.87
2023-10-02T18:13:14.487Z,45.51
2023-10-02T18:15:46.237Z,44.88
2023-10-02T18:18:16.133Z,45.59
2023-10-02T18:20:47.218Z,45.38
2023-10-02T18:23:18.145Z,45.78
2023-10-02T18:25:55.112Z,45.67
2023-10-02T18:28:23.293Z,45.98
2023-10-02T18:30:51.750Z,46.28
2023-10-02T18:33:19.915Z,46.62
2023-10-02T18:35:47.800Z,47.35
2023-10-02T18:38:15.910Z,47.37
2023-10-02T18:40:48.061Z,47.62
2023-10-02T18:43:16.683Z,47.89
2023-10-02T18:45:45.878Z,48.89
2023-10-02T18:48:14.248Z,49.01
2023-10-02T18:50:42.332Z,49.36
2023-10-02T18:53:10.496Z,50.08
2023-10-02T18:55:38.488Z,50.23
2023-10-02T18:58:07.157Z,50.14
2023-10-02T19:00:35.017Z,50.67
2023-10-02T19:03:04.439Z,50.68
2023-10-02T19:05:34.869Z,50.56
2023-10-02T19:08:06.180Z,50.71
2023-10-02T19:10:34.397Z,50.58
2023-10-02T19:13:02.536Z,50.73
2023-10-02T19:15:31.875Z,50.84
2023-10-02T19:18:00.078Z,50.56
2023-10-02T19:20:28.109Z,50.29
2023-10-02T19:22:56.319Z,50.24
2023-10-02T19:25:24.348Z,50.73
2023-10-02T19:27:52.330Z,50.82
2023-10-02T19:30:20.051Z,50.59
2023-10-02T19:32:48.957Z,50.81
2023-10-02T19:35:17.043Z,50.57
2023-10-02T19:37:45.135Z,50.23
2023-10-02T19:40:12.867Z,50.04
2023-10-02T19:42:40.910Z,50.31
2023-10-02T19:45:08.994Z,50.48
2023-10-02T19:47:37.119Z,51.08
2023-10-02T19:50:05.194Z,50.32
2023-10-02T19:52:33.270Z,50.19
2023-10-02T19:55:02.267Z,50.31
2023-10-02T19:57:30.034Z,49.87
2023-10-02T19:59:58.297Z,49.30
2023-10-02T20:02:27.573Z,49.62
2023-10-02T20:04:55.838Z,48.89
2023-10-02T20:07:24.220Z,49.29
2023-10-02T20:09:52.400Z,49.00
2023-10-02T20:12:22.040Z,49.10
2023-10-02T20:14:50.477Z,48.92
2023-10-02T20:17:18.294Z,48.82
2023-10-02T20:19:46.453Z,49.28
2023-10-02T20:22:14.115Z,48.94
2023-10-02T20:24:42.359Z,48.61
2023-10-02T20:27:10.302Z,48.84
2023-10-02T20:29:38.382Z,48.48
2023-10-02T20:32:06.990Z,49.04
2023-10-02T20:34:37.609Z,49.03
2023-10-02T20:37:05.966Z,49.81
2023-10-02T20:39:34.173Z,49.68
2023-10-02T20:42:02.409Z,49.78
2023-10-02T20:44:33.079Z,49.83
2023-10-02T20:47:14.016Z,50.44
2023-10-02T20:49:43.861Z,50.42
2023-10-02T20:52:11.756Z,50.23
2023-10-02T20:54:39.786Z,50.40
2023-10-02T20:57:07.825Z,50.98
2023-10-02T20:59:35.931Z,50.64
2023-10-02T21:02:03.652Z,51.03
2023-10-02T21:04:32.273Z,50.79
2023-10-02T21:07:00.099Z,50.44
2023-10-02T21:09:28.248Z,50.48
2023-10-02T21:11:56.092Z,50.74
2023-10-02T21:14:24.466Z,51.00
2023-10-02T21:16:53.575Z,51.08
2023-10-02T21:19:23.048Z,51.29
2023-10-02T21:21:53.388Z,51.35
2023-10-02T21:24:24.785Z,51.03
2023-10-02T21:26:52.694Z,50.93
2023-10-02T21:29:21.111Z,51.15
2023-10-02T21:31:49.027Z,51.44
2023-10-02T21:34:17.422Z,51.03
2023-10-02T21:36:45.361Z,51.08
2023-10-02T21:39:16.081Z,51.30
2023-10-02T21:41:44.813Z,50.86
2023-10-02T21:44:13.146Z,51.00
2023-10-02T21:46:41.288Z,51.05
2023-10-02T21:49:09.772Z,50.18
2023-10-02T21:51:37.727Z,51.13
2023-10-02T21:54:07.345Z,50.57
2023-10-02T21:56:36.420Z,50.90
2023-10-02T21:59:04.730Z,51.12
2023-10-02T22:01:32.619Z,51.06
2023-10-02T22:04:00.944Z,52.23
2023-10-02T22:06:30.872Z,52.74
2023-10-02T22:08:59.112Z,52.74
2023-10-02T22:11:27.031Z,53.17
2023-10-02T22:13:55.199Z,53.00
2023-10-02T22:16:26.542Z,52.96
2023-10-02T22:18:55.092Z,53.45
2023-10-02T22:21:24.910Z,53.46
2023-10-02T22:23:54.341Z,53.60
2023-10-02T22:26:22.222Z,53.90
2023-10-02T22:28:50.430Z,54.28
2023-10-02T22:31:18.145Z,54.34
2023-10-02T22:33:48.638Z,54.57
2023-10-02T22:36:17.673Z,55.24
2023-10-02T22:38:46.394Z,54.46
2023-10-02T22:41:14.344Z,55.01
2023-10-02T22:43:42.886Z,55.37
2023-10-02T22:46:11.514Z,55.19
2023-10-02T22:48:40.778Z,55.72
2023-10-02T22:51:09.261Z,55.33
2023-10-02T22:53:38.707Z,55.92
2023-10-02T22:56:06.600Z,55.89
2023-10-02T22:58:34.703Z,56.21
2023-10-02T23:01:05.545Z,56.26
2023-10-02T23:03:37.094Z,55.86
2023-10-02T23:06:09.835Z,56.06
2023-10-02T23:08:38.623Z,56.39
2023-10-02T23:11:08.020Z,56.02
2023-10-02T23:13:37.202Z,56.27
2023-10-02T23:16:04.940Z,57.04
2023-10-02T23:18:36.879Z,56.34
2023-10-02T23:21:04.742Z,56.80
2023-10-02T23:23:33.177Z,56.98
2023-10-02T23:26:01.048Z,57.35
2023-10-02T23:28:29.541Z,57.18
2023-10-02T23:30:57.367Z,56.39
2023-10-02T23:33:25.466Z,56.27
2023-10-02T23:35:54.475Z,57.32
2023-10-02T23:38:22.558Z,57.59
2023-10-02T23:40:51.469Z,57.34
2023-10-02T23:43:21.331Z,58.04
2023-10-02T23:45:52.571Z,58.14
2023-10-02T23:48:21.480Z,57.98
2023-10-02T23:50:49.867Z,58.27
2023-10-02T23:53:26.001Z,58.98
2023-10-02T23:56:00.817Z,58.50
2023-10-02T23:58:29.942Z,59.19
